createdAt,value
2019-02-02T00:00:42.075Z,1.87
2019-02-02T00:03:11.351Z,1.60
2019-02-02T00:05:40.300Z,1.60
2019-02-02T00:08:09.650Z,1.90
2019-02-02T00:10:38.649Z,1.53
2019-02-02T00:13:07.498Z,1.70
2019-02-02T00:15:36.871Z,1.60
2019-02-02T00:18:07.660Z,1.50
2019-02-02T00:20:36.577Z,1.87
2019-02-02T00:23:05.488Z,1.97
2019-02-02T00:25:34.303Z,1.60
2019-02-02T00:28:03.372Z,1.60
2019-02-02T00:30:32.167Z,1.37
2019-02-02T00:33:00.923Z,1.50
2019-02-02T00:35:29.959Z,1.37
2019-02-02T00:37:59.039Z,2.07
2019-02-02T00:40:27.840Z,1.43
2019-02-02T00:42:56.776Z,1.50
2019-02-02T00:45:25.616Z,1.60
2019-02-02T00:47:55.873Z,1.73
2019-02-02T00:50:24.723Z,1.80
2019-02-02T00:52:53.737Z,1.90
2019-02-02T00:55:22.874Z,1.30
2019-02-02T00:57:53.964Z,1.70
2019-02-02T01:00:24.715Z,1.70
2019-02-02T01:02:53.819Z,1.47
2019-02-02T01:05:23.484Z,1.67
2019-02-02T01:07:53.286Z,2.03
2019-02-02T01:10:33.686Z,1.50
2019-02-02T01:13:02.707Z,1.53
2019-02-02T01:15:31.795Z,1.77
2019-02-02T01:18:01.037Z,1.80
2019-02-02T01:20:30.916Z,1.40
2019-02-02T01:23:00.265Z,1.40
2019-02-02T01:25:29.460Z,1.63
2019-02-02T01:28:05.470Z,1.50
2019-02-02T01:30:29.380Z,1.70
2019-02-02T01:32:58.190Z,1.60
2019-02-02T01:35:27.121Z,1.47
2019-02-02T01:37:56.330Z,1.60
2019-02-02T01:40:26.189Z,1.40
2019-02-02T01:42:55.984Z,1.53
2019-02-02T01:45:28.659Z,1.60
2019-02-02T01:47:58.340Z,1.50
2019-02-02T01:50:31.118Z,1.50
2019-02-02T01:53:00.047Z,1.23
2019-02-02T01:55:28.955Z,1.70
2019-02-02T01:57:58.074Z,1.20
2019-02-02T02:00:34.901Z,1.57
2019-02-02T02:03:04.147Z,1.73
2019-02-02T02:05:33.104Z,1.60
2019-02-02T02:08:02.328Z,1.60
2019-02-02T02:10:31.208Z,1.87
2019-02-02T02:13:00.062Z,1.70
2019-02-02T02:15:29.011Z,1.60
2019-02-02T02:17:57.922Z,1.57
2019-02-02T02:20:26.738Z,1.70
2019-02-02T02:22:55.515Z,1.80
2019-02-02T02:25:24.437Z,1.63
2019-02-02T02:27:53.406Z,1.50
2019-02-02T02:30:24.076Z,2.30
2019-02-02T02:32:53.705Z,2.10
2019-02-02T02:35:22.977Z,1.67
2019-02-02T02:37:51.939Z,2.07
2019-02-02T02:40:22.937Z,1.90
2019-02-02T02:42:52.506Z,2.80
2019-02-02T02:45:22.566Z,1.90
2019-02-02T02:47:51.530Z,2.10
2019-02-02T02:50:21.861Z,1.97
2019-02-02T02:52:50.961Z,2.40
2019-02-02T02:55:19.905Z,2.20
2019-02-02T02:57:49.696Z,3.07
2019-02-02T03:00:21.344Z,2.43
2019-02-02T03:02:50.233Z,2.53
2019-02-02T03:05:20.022Z,2.40
2019-02-02T03:07:50.094Z,2.90
2019-02-02T03:10:23.779Z,2.50
2019-02-02T03:12:52.904Z,2.20
2019-02-02T03:15:25.000Z,1.97
2019-02-02T03:17:53.881Z,2.80
2019-02-02T03:20:23.034Z,2.33
2019-02-02T03:22:51.943Z,2.50
2019-02-02T03:25:23.481Z,2.63
2019-02-02T03:27:52.522Z,2.60
2019-02-02T03:30:22.067Z,2.87
2019-02-02T03:32:51.665Z,2.77
2019-02-02T03:35:22.713Z,3.07
2019-02-02T03:37:51.826Z,2.83
2019-02-02T03:40:22.289Z,3.07
2019-02-02T03:42:51.303Z,3.40
2019-02-02T03:45:24.194Z,2.47
2019-02-02T03:47:54.011Z,3.60
2019-02-02T03:50:22.898Z,2.93
2019-02-02T03:52:51.930Z,3.47
2019-02-02T03:55:22.627Z,3.60
2019-02-02T03:57:51.913Z,4.43
2019-02-02T04:00:21.988Z,3.90
2019-02-02T04:02:51.137Z,3.90
2019-02-02T04:05:22.710Z,3.70
2019-02-02T04:07:52.047Z,4.20
2019-02-02T04:10:21.260Z,4.23
2019-02-02T04:12:50.354Z,4.37
2019-02-02T04:15:19.882Z,3.97
2019-02-02T04:17:49.333Z,4.60
2019-02-02T04:20:24.693Z,3.30
2019-02-02T04:22:53.790Z,4.00
2019-02-02T04:25:24.129Z,3.63
2019-02-02T04:27:52.957Z,4.63
2019-02-02T04:30:25.087Z,4.13
2019-02-02T04:32:54.515Z,3.80
2019-02-02T04:35:24.205Z,4.53
2019-02-02T04:37:53.040Z,4.13
2019-02-02T04:40:22.389Z,5.10
2019-02-02T04:42:51.725Z,4.60
2019-02-02T04:45:20.995Z,4.17
2019-02-02T04:47:49.959Z,4.07
2019-02-02T04:50:20.212Z,4.80
2019-02-02T04:52:49.584Z,4.00
2019-02-02T04:55:21.518Z,5.13
2019-02-02T04:57:50.658Z,4.73
2019-02-02T05:00:43.533Z,4.30
2019-02-02T05:03:12.562Z,4.70
2019-02-02T05:05:41.660Z,4.37
2019-02-02T05:08:10.668Z,4.67
2019-02-02T05:10:42.847Z,5.57
2019-02-02T05:13:11.738Z,4.17
2019-02-02T05:15:40.569Z,4.13
2019-02-02T05:18:09.519Z,5.00
2019-02-02T05:20:38.535Z,5.13
2019-02-02T05:23:07.957Z,4.80
2019-02-02T05:25:36.897Z,4.43
2019-02-02T05:28:05.922Z,4.90
2019-02-02T05:30:35.299Z,5.50
2019-02-02T05:33:04.331Z,6.00
2019-02-02T05:35:33.403Z,5.20
2019-02-02T05:38:02.402Z,5.87
2019-02-02T05:40:31.356Z,4.57
2019-02-02T05:43:03.354Z,5.33
2019-02-02T05:45:32.254Z,5.43
2019-02-02T05:48:01.503Z,5.37
2019-02-02T05:50:30.958Z,5.50
2019-02-02T05:52:59.846Z,5.20
2019-02-02T05:55:28.865Z,5.43
2019-02-02T05:57:57.729Z,5.00
2019-02-02T06:00:31.261Z,4.93
2019-02-02T06:03:01.604Z,5.43
2019-02-02T06:05:31.335Z,5.20
2019-02-02T06:08:00.255Z,5.77
2019-02-02T06:10:29.681Z,6.73
2019-02-02T06:12:58.556Z,4.87
2019-02-02T06:15:28.564Z,5.33
2019-02-02T06:17:58.042Z,5.60
2019-02-02T06:20:27.126Z,5.17
2019-02-02T06:22:56.224Z,6.63
2019-02-02T06:25:25.110Z,4.93
2019-02-02T06:27:53.868Z,6.00
2019-02-02T06:30:24.464Z,6.70
2019-02-02T06:32:53.527Z,6.57
2019-02-02T06:35:22.727Z,5.67
2019-02-02T06:37:51.889Z,5.77
2019-02-02T06:40:21.394Z,4.97
2019-02-02T06:42:50.711Z,5.70
2019-02-02T06:45:25.568Z,6.17
2019-02-02T06:47:59.855Z,5.80
2019-02-02T06:50:28.716Z,5.10
2019-02-02T06:52:58.306Z,5.60
2019-02-02T06:55:30.091Z,5.43
2019-02-02T06:57:59.069Z,6.43
2019-02-02T07:00:31.178Z,4.93
2019-02-02T07:03:00.086Z,6.93
2019-02-02T07:05:29.497Z,6.23
2019-02-02T07:07:58.449Z,6.40
2019-02-02T07:10:30.713Z,5.63
2019-02-02T07:12:59.744Z,6.73
2019-02-02T07:15:30.327Z,6.30
2019-02-02T07:17:59.982Z,6.50
2019-02-02T07:20:29.027Z,6.83
2019-02-02T07:22:57.891Z,7.27
2019-02-02T07:25:26.971Z,6.87
2019-02-02T07:27:55.968Z,6.07
2019-02-02T07:30:29.768Z,5.53
2019-02-02T07:32:56.607Z,6.33
2019-02-02T07:35:29.619Z,6.17
2019-02-02T07:37:58.157Z,6.73
2019-02-02T07:40:27.917Z,6.23
2019-02-02T07:42:56.828Z,6.77
2019-02-02T07:45:28.520Z,7.20
2019-02-02T07:47:57.337Z,6.43
2019-02-02T07:50:26.339Z,6.60
2019-02-02T07:52:55.214Z,7.07
2019-02-02T07:55:24.113Z,6.40
2019-02-02T07:57:53.032Z,7.23
2019-02-02T08:00:24.733Z,7.20
2019-02-02T08:02:54.250Z,6.87
2019-02-02T08:05:23.265Z,6.13
2019-02-02T08:07:52.912Z,6.30
2019-02-02T08:10:22.242Z,6.40
2019-02-02T08:12:51.669Z,7.37
2019-02-02T08:15:31.695Z,6.07
2019-02-02T08:18:00.814Z,6.53
2019-02-02T08:20:30.255Z,6.43
2019-02-02T08:23:00.295Z,7.10
2019-02-02T08:25:29.164Z,6.53
2019-02-02T08:27:58.092Z,6.37
2019-02-02T08:30:31.613Z,6.50
2019-02-02T08:33:00.629Z,7.33
2019-02-02T08:35:29.876Z,6.30
2019-02-02T08:37:59.157Z,5.73
2019-02-02T08:40:28.008Z,6.27
2019-02-02T08:42:59.982Z,6.97
2019-02-02T08:45:28.951Z,6.57
2019-02-02T08:47:57.985Z,6.53
2019-02-02T08:50:32.666Z,7.73
2019-02-02T08:53:01.730Z,5.83
2019-02-02T08:55:30.857Z,6.70
2019-02-02T08:57:59.903Z,5.23
2019-02-02T09:00:29.064Z,5.80
2019-02-02T09:02:57.949Z,6.27
2019-02-02T09:05:26.863Z,6.27
2019-02-02T09:07:55.965Z,7.70
2019-02-02T09:10:27.458Z,6.00
2019-02-02T09:12:57.295Z,6.77
2019-02-02T09:15:26.317Z,6.43
2019-02-02T09:17:57.077Z,6.63
2019-02-02T09:20:28.773Z,7.27
2019-02-02T09:23:06.043Z,5.97
2019-02-02T09:25:31.131Z,6.83
2019-02-02T09:28:00.214Z,5.43
2019-02-02T09:30:31.719Z,6.67
2019-02-02T09:33:00.986Z,6.03
2019-02-02T09:35:30.217Z,5.60
2019-02-02T09:37:59.283Z,6.20
2019-02-02T09:40:28.348Z,5.53
2019-02-02T09:42:57.385Z,5.53
2019-02-02T09:45:28.518Z,6.23
2019-02-02T09:47:57.165Z,5.90
2019-02-02T09:50:30.241Z,5.40
2019-02-02T09:52:59.215Z,6.30
2019-02-02T09:55:28.103Z,5.63
2019-02-02T09:58:01.273Z,5.20
2019-02-02T10:00:31.852Z,5.37
2019-02-02T10:03:00.799Z,6.10
2019-02-02T10:05:30.825Z,5.50
2019-02-02T10:08:01.078Z,5.03
2019-02-02T10:10:32.660Z,6.43
2019-02-02T10:13:02.017Z,6.10
2019-02-02T10:15:31.609Z,5.70
2019-02-02T10:18:00.436Z,5.77
2019-02-02T10:20:30.998Z,5.43
2019-02-02T10:23:00.898Z,5.63
2019-02-02T10:25:31.384Z,6.13
2019-02-02T10:28:02.006Z,5.17
2019-02-02T10:30:33.468Z,5.57
2019-02-02T10:33:02.842Z,5.33
2019-02-02T10:35:32.126Z,6.00
2019-02-02T10:38:01.042Z,5.13
2019-02-02T10:40:30.315Z,5.63
2019-02-02T10:42:59.455Z,5.40
2019-02-02T10:45:28.497Z,6.57
2019-02-02T10:47:57.795Z,5.50
2019-02-02T10:50:27.945Z,6.00
2019-02-02T10:52:57.046Z,5.43
2019-02-02T10:55:26.147Z,5.77
2019-02-02T10:57:55.434Z,5.80
2019-02-02T11:00:36.230Z,5.20
2019-02-02T11:03:05.420Z,5.90
2019-02-02T11:05:34.419Z,5.43
2019-02-02T11:08:04.596Z,5.13
2019-02-02T11:10:34.955Z,5.90
2019-02-02T11:13:04.388Z,6.20
2019-02-02T11:15:33.423Z,5.60
2019-02-02T11:18:02.731Z,5.27
2019-02-02T11:20:36.650Z,5.70
2019-02-02T11:23:06.219Z,6.00
2019-02-02T11:25:35.182Z,5.70
2019-02-02T11:28:04.311Z,5.23
2019-02-02T11:30:33.609Z,5.53
2019-02-02T11:33:02.595Z,4.97
2019-02-02T11:35:31.562Z,5.27
2019-02-02T11:38:02.177Z,5.63
2019-02-02T11:40:32.832Z,5.57
2019-02-02T11:43:03.454Z,4.63
2019-02-02T11:45:32.789Z,5.83
2019-02-02T11:48:01.671Z,5.60
2019-02-02T11:50:31.464Z,4.87
2019-02-02T11:53:00.358Z,6.27
2019-02-02T11:55:32.005Z,5.57
2019-02-02T11:58:00.861Z,5.87
2019-02-02T12:00:32.365Z,5.60
2019-02-02T12:03:04.905Z,5.67
2019-02-02T12:05:33.894Z,5.83
2019-02-02T12:08:03.076Z,5.90
2019-02-02T12:10:52.625Z,6.37
2019-02-02T12:13:21.594Z,5.40
2019-02-02T12:15:50.531Z,6.03
2019-02-02T12:18:20.112Z,5.47
2019-02-02T12:20:49.314Z,6.53
2019-02-02T12:23:18.326Z,5.80
2019-02-02T12:25:47.385Z,6.03
2019-02-02T12:28:16.220Z,5.80
2019-02-02T12:30:45.242Z,6.10
2019-02-02T12:33:14.139Z,5.83
2019-02-02T12:35:43.355Z,7.33
2019-02-02T12:38:12.341Z,6.20
2019-02-02T12:40:41.170Z,6.27
2019-02-02T12:43:11.705Z,6.73
2019-02-02T12:45:46.493Z,5.23
2019-02-02T12:48:15.271Z,6.23
2019-02-02T12:50:44.206Z,5.73
2019-02-02T12:53:13.453Z,5.80
2019-02-02T12:55:42.234Z,6.43
2019-02-02T12:58:11.202Z,5.67
2019-02-02T13:00:40.193Z,5.63
2019-02-02T13:03:09.198Z,6.33
2019-02-02T13:05:39.140Z,5.83
2019-02-02T13:08:08.605Z,5.83
2019-02-02T13:10:40.620Z,5.93
2019-02-02T13:13:09.479Z,5.30
2019-02-02T13:15:38.320Z,5.90
2019-02-02T13:18:07.397Z,5.97
2019-02-02T13:20:36.136Z,6.40
2019-02-02T13:23:04.941Z,6.47
2019-02-02T13:25:34.144Z,5.53
2019-02-02T13:28:03.145Z,6.20
2019-02-02T13:30:34.353Z,6.13
2019-02-02T13:33:03.447Z,5.70
2019-02-02T13:35:34.389Z,5.70
2019-02-02T13:38:03.544Z,6.77
2019-02-02T13:40:32.347Z,6.03
2019-02-02T13:43:01.495Z,6.73
2019-02-02T13:45:30.441Z,6.93
2019-02-02T13:47:59.616Z,5.83
2019-02-02T13:50:28.536Z,5.50
2019-02-02T13:52:57.781Z,6.17
2019-02-02T13:55:27.864Z,6.93
2019-02-02T13:57:56.969Z,6.87
2019-02-02T14:00:33.666Z,6.77
2019-02-02T14:03:03.669Z,6.37
2019-02-02T14:05:32.918Z,6.57
2019-02-02T14:08:01.681Z,6.70
2019-02-02T14:10:35.014Z,6.67
2019-02-02T14:13:03.939Z,5.70
2019-02-02T14:15:32.640Z,5.87
2019-02-02T14:18:01.657Z,6.97
2019-02-02T14:20:30.507Z,5.77
2019-02-02T14:22:59.579Z,6.10
2019-02-02T14:25:28.395Z,7.03
2019-02-02T14:27:57.512Z,6.97
2019-02-02T14:30:27.474Z,6.47
2019-02-02T14:32:56.433Z,6.50
2019-02-02T14:35:27.141Z,6.10
2019-02-02T14:37:56.123Z,5.97
2019-02-02T14:40:33.551Z,6.17
2019-02-02T14:43:02.295Z,6.00
2019-02-02T14:45:31.261Z,5.97
2019-02-02T14:47:59.952Z,5.97
2019-02-02T14:50:31.944Z,5.37
2019-02-02T14:52:59.476Z,5.57
2019-02-02T14:55:30.208Z,6.23
2019-02-02T14:57:59.027Z,5.90
2019-02-02T15:00:29.389Z,6.03
2019-02-02T15:02:58.727Z,6.37
2019-02-02T15:05:27.763Z,6.07
2019-02-02T15:07:57.383Z,5.83
2019-02-02T15:10:26.429Z,5.73
2019-02-02T15:12:55.221Z,6.17
2019-02-02T15:15:23.971Z,5.27
2019-02-02T15:17:52.846Z,5.30
2019-02-02T15:20:26.912Z,5.13
2019-02-02T15:23:15.125Z,5.80
2019-02-02T15:25:44.197Z,6.53
2019-02-02T15:28:13.136Z,4.63
2019-02-02T15:30:41.994Z,5.53
2019-02-02T15:33:10.830Z,5.63
2019-02-02T15:35:39.681Z,5.13
2019-02-02T15:38:08.882Z,5.13
2019-02-02T15:40:38.029Z,5.37
2019-02-02T15:43:06.945Z,4.90
2019-02-02T15:45:35.708Z,4.57
2019-02-02T15:48:04.667Z,5.70
2019-02-02T15:50:33.837Z,4.83
2019-02-02T15:53:02.647Z,4.37
2019-02-02T15:55:31.691Z,4.83
2019-02-02T15:58:00.475Z,4.87
2019-02-02T16:00:37.567Z,5.37
2019-02-02T16:03:06.604Z,4.63
2019-02-02T16:05:36.114Z,4.27
2019-02-02T16:08:08.430Z,4.67
2019-02-02T16:10:37.702Z,3.93
2019-02-02T16:13:06.623Z,4.30
2019-02-02T16:15:35.555Z,4.83
2019-02-02T16:18:04.836Z,4.37
2019-02-02T16:20:36.465Z,4.67
2019-02-02T16:23:06.277Z,4.10
2019-02-02T16:25:34.986Z,4.83
2019-02-02T16:28:04.522Z,4.57
2019-02-02T16:30:33.380Z,4.47
2019-02-02T16:33:02.174Z,4.37
2019-02-02T16:35:31.539Z,4.50
2019-02-02T16:38:00.626Z,4.73
2019-02-02T16:40:31.150Z,3.80
2019-02-02T16:43:00.187Z,4.80
2019-02-02T16:45:34.111Z,4.27
2019-02-02T16:48:02.916Z,4.80
2019-02-02T16:50:31.725Z,4.30
2019-02-02T16:53:00.492Z,4.70
2019-02-02T16:55:29.307Z,4.87
2019-02-02T16:57:58.251Z,5.10
2019-02-02T17:00:50.827Z,5.87
2019-02-02T17:03:21.410Z,4.27
2019-02-02T17:05:50.450Z,4.87
2019-02-02T17:08:20.095Z,4.13
2019-02-02T17:10:49.398Z,3.97
2019-02-02T17:13:18.566Z,3.90
2019-02-02T17:15:47.550Z,4.07
2019-02-02T17:18:16.646Z,4.47
2019-02-02T17:20:45.553Z,3.93
2019-02-02T17:23:14.666Z,4.10
2019-02-02T17:25:43.480Z,3.63
2019-02-02T17:28:12.234Z,3.77
2019-02-02T17:30:41.372Z,4.07
2019-02-02T17:33:12.580Z,4.07
2019-02-02T17:35:41.524Z,4.43
2019-02-02T17:38:10.473Z,4.53
2019-02-02T17:40:39.489Z,3.80
2019-02-02T17:43:08.871Z,3.53
2019-02-02T17:45:39.873Z,3.63
2019-02-02T17:48:09.073Z,3.73
2019-02-02T17:50:38.119Z,3.40
2019-02-02T17:53:07.211Z,3.27
2019-02-02T17:55:35.995Z,3.73
2019-02-02T17:58:08.176Z,3.60
2019-02-02T18:00:44.056Z,3.83
2019-02-02T18:03:12.945Z,3.87
2019-02-02T18:05:41.884Z,3.53
2019-02-02T18:08:13.654Z,4.13
2019-02-02T18:10:42.786Z,2.97
2019-02-02T18:13:11.672Z,4.37
2019-02-02T18:15:40.703Z,2.90
2019-02-02T18:18:09.968Z,3.00
2019-02-02T18:20:39.168Z,3.53
2019-02-02T18:23:08.595Z,3.60
2019-02-02T18:25:37.491Z,3.90
2019-02-02T18:28:06.505Z,4.03
2019-02-02T18:30:35.241Z,3.90
2019-02-02T18:33:04.164Z,3.40
2019-02-02T18:35:33.190Z,3.73
2019-02-02T18:38:02.144Z,3.33
2019-02-02T18:40:31.238Z,3.23
2019-02-02T18:42:59.975Z,3.03
2019-02-02T18:45:48.323Z,3.33
2019-02-02T18:48:17.640Z,4.30
2019-02-02T18:50:46.838Z,3.30
2019-02-02T18:53:15.859Z,3.50
2019-02-02T18:55:48.409Z,2.90
2019-02-02T18:58:17.393Z,2.97
2019-02-02T19:00:46.244Z,2.80
2019-02-02T19:03:15.261Z,3.30
2019-02-02T19:05:44.301Z,2.87
2019-02-02T19:08:13.053Z,2.93
2019-02-02T19:10:42.635Z,3.20
2019-02-02T19:13:11.998Z,2.90
2019-02-02T19:15:40.846Z,2.70
2019-02-02T19:18:09.840Z,3.00
2019-02-02T19:20:38.837Z,3.43
2019-02-02T19:23:08.173Z,2.37
2019-02-02T19:25:37.158Z,2.57
2019-02-02T19:28:07.355Z,2.40
2019-02-02T19:30:36.722Z,2.80
2019-02-02T19:33:06.342Z,2.47
2019-02-02T19:35:35.193Z,2.30
2019-02-02T19:38:04.132Z,2.50
2019-02-02T19:40:33.049Z,2.47
2019-02-02T19:43:02.221Z,2.70
2019-02-02T19:45:31.130Z,2.63
2019-02-02T19:48:00.251Z,2.57
2019-02-02T19:50:32.004Z,2.30
2019-02-02T19:53:01.081Z,2.27
2019-02-02T19:55:30.129Z,2.43
2019-02-02T19:57:58.983Z,2.40
2019-02-02T20:00:33.036Z,2.03
2019-02-02T20:03:02.614Z,2.50
2019-02-02T20:05:31.618Z,2.60
2019-02-02T20:08:00.561Z,2.70
2019-02-02T20:10:29.643Z,2.60
2019-02-02T20:12:58.703Z,2.43
2019-02-02T20:15:28.577Z,2.93
2019-02-02T20:18:08.913Z,2.40
2019-02-02T20:20:29.314Z,2.23
2019-02-02T20:23:00.081Z,2.27
2019-02-02T20:25:28.906Z,2.53
2019-02-02T20:27:58.186Z,2.20
2019-02-02T20:30:29.900Z,2.80
2019-02-02T20:32:58.853Z,2.80
2019-02-02T20:35:39.733Z,2.47
2019-02-02T20:37:58.324Z,2.47
2019-02-02T20:40:27.913Z,2.40
2019-02-02T20:42:56.821Z,2.40
2019-02-02T20:45:28.072Z,2.43
2019-02-02T20:47:56.829Z,2.30
2019-02-02T20:50:26.252Z,2.07
2019-02-02T20:52:55.335Z,2.37
2019-02-02T20:55:26.415Z,2.60
2019-02-02T20:57:55.441Z,2.73
2019-02-02T21:00:29.181Z,2.33
2019-02-02T21:02:58.323Z,2.67
2019-02-02T21:05:27.323Z,2.67
2019-02-02T21:07:56.510Z,2.50
2019-02-02T21:10:26.002Z,2.53
2019-02-02T21:12:54.867Z,2.23
2019-02-02T21:15:23.818Z,2.50
2019-02-02T21:17:52.720Z,1.80
2019-02-02T21:20:23.826Z,2.43
2019-02-02T21:22:52.928Z,2.10
2019-02-02T21:25:25.518Z,2.30
2019-02-02T21:27:54.291Z,2.33
2019-02-02T21:30:33.921Z,1.83
2019-02-02T21:33:03.153Z,2.50
2019-02-02T21:35:32.115Z,2.20
2019-02-02T21:38:00.981Z,1.80
2019-02-02T21:40:31.780Z,1.83
2019-02-02T21:43:00.883Z,2.17
2019-02-02T21:45:29.956Z,1.80
2019-02-02T21:47:58.812Z,1.80
2019-02-02T21:50:27.875Z,2.23
2019-02-02T21:52:57.174Z,2.20
2019-02-02T21:55:28.111Z,1.70
2019-02-02T21:57:57.254Z,2.20
2019-02-02T22:00:28.895Z,1.80
2019-02-02T22:02:57.983Z,1.80
2019-02-02T22:05:26.824Z,2.37
2019-02-02T22:07:56.099Z,1.70
2019-02-02T22:10:25.124Z,2.30
2019-02-02T22:12:54.547Z,2.20
2019-02-02T22:15:27.902Z,1.90
2019-02-02T22:17:56.916Z,2.10
2019-02-02T22:20:25.676Z,1.90
2019-02-02T22:22:54.839Z,2.13
2019-02-02T22:25:32.070Z,1.87
2019-02-02T22:28:00.899Z,2.00
2019-02-02T22:30:31.960Z,1.93
2019-02-02T22:33:00.763Z,2.10
2019-02-02T22:35:29.553Z,1.90
2019-02-02T22:37:58.852Z,1.83
2019-02-02T22:40:28.548Z,2.17
2019-02-02T22:42:57.715Z,2.20
2019-02-02T22:45:26.598Z,2.10
2019-02-02T22:47:55.678Z,2.10
2019-02-02T22:50:28.325Z,1.77
2019-02-02T22:52:57.344Z,1.90
2019-02-02T22:55:28.083Z,2.00
2019-02-02T22:57:56.865Z,1.90
2019-02-02T23:00:45.368Z,2.20
2019-02-02T23:03:22.981Z,1.73
2019-02-02T23:06:10.102Z,1.63
2019-02-02T23:08:44.931Z,1.63
2019-02-02T23:11:22.364Z,1.93
2019-02-02T23:13:54.309Z,2.10
2019-02-02T23:16:27.805Z,2.67
2019-02-02T23:18:57.215Z,2.37
2019-02-02T23:21:26.130Z,1.90
2019-02-02T23:23:54.959Z,2.00
2019-02-02T23:26:24.027Z,2.23
2019-02-02T23:28:53.581Z,2.23
2019-02-02T23:31:22.633Z,2.17
2019-02-02T23:33:51.904Z,2.10
2019-02-02T23:36:22.264Z,1.93
2019-02-02T23:38:51.527Z,2.10
2019-02-02T23:41:21.092Z,2.63
2019-02-02T23:43:52.805Z,2.20
2019-02-02T23:46:21.657Z,2.50
2019-02-02T23:48:52.005Z,2.20
2019-02-02T23:51:21.444Z,3.03
2019-02-02T23:53:51.841Z,2.03
2019-02-02T23:56:20.673Z,2.10
2019-02-02T23:58:49.836Z,2.53
